»·PEaware :: N832PW KGCN-KHII

N832PW :: KGCN-KHII

FLIGHT INFORMATION

Flight Status: Arrived
Operator: Privately registered:
United States
More flights under this callsign
Pilot: Justin W. (21172)
Aircraft: PIPER PA-24 COMMANCHE
(PA24)
More flights by this aircraft type
Origin: KGCN Grand Canyon Natl Park
United States
Destination: KHII Lake Havasu City
United States
More flights between these airports :: More routes between these airports
Route: PGS
File this flight plan on PilotEdge
Remarks:
Altitude:
(Current/Filed)
10,500ft
Speed:
(Current/Filed)
150kts
Departed: 22-May-20 08:19 PM
Arrived: 22-May-20 09:28 PM
Distance/Time
Traveled:
136nm/1:09
Distance/Time
To Go:
Arrived

Flight Plot

Page will automatically refresh every two minutes.


Map Options




Map Legend


Flown Route
Filed Route
Departure Airport
Arrival Airport
Navaid (VOR, NDB)
Fix

Horizontal Profiles

Position Reports

Time Latitude Longitude Heading Altitude Ground
Speed
22-May-20 20:10 35.958463 -112.138482 220 6612ft 0kts
22-May-20 20:11 35.958463 -112.138482 220 6612ft 0kts
22-May-20 20:12 35.958443 -112.138606 320 6612ft 2kts
22-May-20 20:13 35.961128 -112.136398 307 6612ft 7kts
22-May-20 20:14 35.961156 -112.136442 308 6612ft 0kts
22-May-20 20:15 35.961159 -112.136447 308 6612ft 0kts
22-May-20 20:16 35.961160 -112.136449 308 6612ft 0kts
22-May-20 20:17 35.961175 -112.136472 307 6612ft 0kts
22-May-20 20:18 35.953808 -112.145622 221 6789ft 88kts
22-May-20 20:19 35.937592 -112.170138 244 7919ft 94kts
22-May-20 20:20 35.930801 -112.201202 248 8972ft 94kts
22-May-20 20:21 35.927613 -112.232896 254 9936ft 92kts
22-May-20 20:22 35.923036 -112.265650 250 10521ft 114kts
22-May-20 20:23 35.915148 -112.307698 257 10547ft 133kts
22-May-20 20:24 35.911049 -112.354068 256 10528ft 136kts
22-May-20 20:25 35.903841 -112.400145 254 10522ft 136kts
22-May-20 20:26 35.895267 -112.445762 251 10498ft 136kts
22-May-20 20:27 35.887077 -112.491416 252 10498ft 136kts
22-May-20 20:28 35.877094 -112.536435 248 10497ft 135kts
22-May-20 20:29 35.865562 -112.580622 249 10492ft 135kts
22-May-20 20:30 35.853600 -112.624842 248 10492ft 136kts
22-May-20 20:31 35.841329 -112.669063 247 10489ft 136kts
22-May-20 20:32 35.829189 -112.713433 250 10488ft 137kts
22-May-20 20:33 35.818664 -112.758373 250 10485ft 136kts
22-May-20 20:34 35.808223 -112.803500 247 10486ft 136kts
22-May-20 20:35 35.798619 -112.848965 248 10481ft 137kts
22-May-20 20:36 35.786784 -112.893567 247 10479ft 136kts
22-May-20 20:37 35.776062 -112.938616 250 10473ft 137kts
22-May-20 20:38 35.764875 -112.983385 247 10471ft 136kts
22-May-20 20:39 35.752612 -113.027779 247 10455ft 137kts
22-May-20 20:40 35.741513 -113.071654 249 10574ft 129kts
22-May-20 20:41 35.732013 -113.115610 247 10594ft 134kts
22-May-20 20:42 35.720547 -113.159972 245 10586ft 135kts
22-May-20 20:43 35.708884 -113.204070 250 10578ft 136kts
22-May-20 20:44 35.698110 -113.248410 248 10572ft 135kts
22-May-20 20:45 35.687045 -113.292846 249 10567ft 136kts
22-May-20 20:46 35.676635 -113.337820 248 10559ft 136kts
22-May-20 20:47 35.664734 -113.381837 248 10553ft 135kts
22-May-20 20:48 35.653970 -113.426415 247 10545ft 136kts
22-May-20 20:49 35.643059 -113.471369 248 10536ft 137kts
22-May-20 20:50 35.631836 -113.515750 246 10526ft 135kts
22-May-20 20:51 35.614806 -113.555117 210 10521ft 133kts
22-May-20 20:52 35.583046 -113.578152 213 10512ft 133kts
22-May-20 20:53 35.551697 -113.602296 214 10513ft 133kts
22-May-20 20:54 35.520882 -113.627135 217 10513ft 132kts
22-May-20 20:55 35.489611 -113.651386 211 10510ft 133kts
22-May-20 20:56 35.458604 -113.676178 217 10506ft 133kts
22-May-20 20:57 35.427904 -113.702000 214 10500ft 134kts
22-May-20 20:58 35.395911 -113.725507 212 10499ft 134kts
22-May-20 20:59 35.364924 -113.750848 218 10497ft 134kts
22-May-20 21:00 35.333510 -113.775638 216 10497ft 133kts
22-May-20 21:01 35.303027 -113.801388 215 10496ft 133kts
22-May-20 21:02 35.275711 -113.831846 225 10521ft 132kts
22-May-20 21:03 35.250954 -113.865555 229 10551ft 133kts
22-May-20 21:04 35.228423 -113.901668 223 10570ft 134kts
22-May-20 21:05 35.200412 -113.931800 222 10597ft 134kts
22-May-20 21:06 35.171475 -113.961266 221 10583ft 136kts
22-May-20 21:07 35.141998 -113.990449 216 10552ft 137kts
22-May-20 21:08 35.109293 -114.014891 212 10505ft 135kts
22-May-20 21:09 35.076081 -114.039676 216 9996ft 141kts
22-May-20 21:10 35.043274 -114.064860 212 9473ft 136kts
22-May-20 21:11 35.010274 -114.087362 207 8963ft 124kts
22-May-20 21:12 34.981128 -114.104055 210 7641ft 113kts
22-May-20 21:14 34.953579 -114.123539 212 6647ft 120kts
22-May-20 21:15 34.924389 -114.143073 206 6687ft 119kts
22-May-20 21:16 34.896073 -114.164603 212 6710ft 120kts
22-May-20 21:17 34.868096 -114.188395 214 6769ft 128kts
22-May-20 21:18 34.836702 -114.210460 211 6824ft 132kts
22-May-20 21:19 34.804824 -114.232974 212 6119ft 134kts
22-May-20 21:20 34.772905 -114.255224 207 5507ft 132kts
22-May-20 21:21 34.739944 -114.275500 204 4866ft 132kts
22-May-20 21:22 34.707206 -114.295397 205 4322ft 132kts
22-May-20 21:23 34.675448 -114.316916 212 3883ft 130kts
22-May-20 21:24 34.649789 -114.340794 219 3561ft 113kts
22-May-20 21:25 34.627585 -114.367506 225 2731ft 113kts
22-May-20 21:26 34.606952 -114.384343 143 2041ft 92kts
22-May-20 21:27 34.588151 -114.370285 152 964ft 74kts
22-May-20 21:28 34.575151 -114.361167 151 786ft 16kts
22-May-20 21:29 34.572611 -114.360631 150 786ft 17kts
22-May-20 21:29 34.571696 -114.360243 170 786ft 0kts

Navigation Log

Ident Type
Flight plan parsing failed, navigation log unavailable